createdAt,value
2018-03-18T00:00:05.920Z,0.00
2018-03-18T00:01:05.878Z,0.00
2018-03-18T00:02:59.222Z,0.00
2018-03-18T00:03:59.128Z,0.00
2018-03-18T00:05:52.452Z,0.00
2018-03-18T00:06:52.416Z,0.00
2018-03-18T00:08:45.837Z,0.00
2018-03-18T00:09:45.711Z,0.00
2018-03-18T00:11:39.036Z,0.00
2018-03-18T00:12:39.014Z,0.00
2018-03-18T00:14:32.369Z,0.00
2018-03-18T00:15:32.286Z,0.00
2018-03-18T00:17:25.612Z,0.00
2018-03-18T00:18:25.576Z,0.00
2018-03-18T00:20:18.951Z,0.00
2018-03-18T00:21:18.949Z,0.00
2018-03-18T00:23:13.202Z,0.00
2018-03-18T00:24:13.165Z,0.00
2018-03-18T00:26:06.533Z,0.00
2018-03-18T00:27:06.452Z,0.00
2018-03-18T00:28:59.822Z,0.00
2018-03-18T00:29:59.740Z,0.00
2018-03-18T00:31:53.068Z,0.00
2018-03-18T00:32:53.112Z,0.00
2018-03-18T00:34:47.402Z,0.00
2018-03-18T00:35:47.323Z,0.00
2018-03-18T00:37:40.645Z,0.00
2018-03-18T00:38:40.607Z,0.00
2018-03-18T00:40:33.978Z,0.00
2018-03-18T00:41:33.900Z,0.00
2018-03-18T00:43:27.221Z,0.00
2018-03-18T00:44:27.185Z,0.00
2018-03-18T00:46:21.556Z,0.00
2018-03-18T00:47:21.487Z,0.00
2018-03-18T00:49:14.844Z,0.00
2018-03-18T00:50:14.801Z,0.00
2018-03-18T00:52:09.084Z,0.00
2018-03-18T00:53:09.050Z,0.00
2018-03-18T00:55:02.420Z,0.00
2018-03-18T00:56:02.339Z,0.00
2018-03-18T00:57:55.689Z,0.00
2018-03-18T00:58:55.626Z,0.00
2018-03-18T01:00:49.003Z,0.00
2018-03-18T01:01:48.914Z,0.00
2018-03-18T01:03:43.246Z,0.00
2018-03-18T01:04:43.260Z,0.00
2018-03-18T01:06:36.583Z,0.00
2018-03-18T01:07:36.503Z,0.00
2018-03-18T01:09:29.828Z,0.00
2018-03-18T01:10:29.886Z,0.00
2018-03-18T01:12:23.169Z,0.00
2018-03-18T01:13:23.074Z,0.00
2018-03-18T01:15:16.448Z,0.00
2018-03-18T01:16:16.363Z,0.00
2018-03-18T01:18:09.700Z,0.00
2018-03-18T01:19:09.665Z,0.00
2018-03-18T01:21:03.038Z,0.00
2018-03-18T01:22:02.949Z,0.00
2018-03-18T01:23:56.293Z,0.00
2018-03-18T01:24:56.244Z,0.00
2018-03-18T01:26:49.617Z,0.00
2018-03-18T01:27:49.534Z,0.00
2018-03-18T01:29:42.859Z,0.00
2018-03-18T01:30:42.921Z,0.00
2018-03-18T01:32:36.197Z,0.00
2018-03-18T01:33:36.113Z,0.00
2018-03-18T01:35:29.485Z,0.00
2018-03-18T01:36:29.401Z,0.00
2018-03-18T01:38:23.731Z,0.00
2018-03-18T01:39:23.687Z,0.00
2018-03-18T01:41:17.068Z,0.00
2018-03-18T01:42:16.986Z,0.00
2018-03-18T01:44:10.309Z,0.00
2018-03-18T01:45:10.275Z,0.00
2018-03-18T01:47:03.670Z,0.00
2018-03-18T01:48:03.565Z,0.00
2018-03-18T01:49:56.889Z,0.00
2018-03-18T01:50:56.878Z,0.00
2018-03-18T01:52:50.222Z,0.00
2018-03-18T01:53:50.142Z,0.00
2018-03-18T01:55:43.509Z,0.00
2018-03-18T01:56:43.429Z,0.00
2018-03-18T01:58:36.759Z,0.00
2018-03-18T01:59:36.728Z,0.00
2018-03-18T02:01:30.092Z,0.00
2018-03-18T02:02:30.006Z,0.00
2018-03-18T02:04:23.331Z,0.00
2018-03-18T02:05:23.300Z,0.00
2018-03-18T02:07:16.696Z,0.00
2018-03-18T02:08:16.584Z,0.00
2018-03-18T02:10:09.912Z,0.00
2018-03-18T02:11:09.868Z,0.00
2018-03-18T02:13:03.253Z,0.00
2018-03-18T02:14:03.169Z,0.00
2018-03-18T02:15:56.560Z,0.00
2018-03-18T02:16:56.458Z,0.00
2018-03-18T02:18:49.787Z,0.00
2018-03-18T02:19:49.749Z,0.00
2018-03-18T02:21:43.117Z,0.00
2018-03-18T02:22:43.039Z,0.00
2018-03-18T02:24:36.360Z,0.00
2018-03-18T02:25:36.325Z,0.00
2018-03-18T02:27:29.697Z,0.00
2018-03-18T02:28:29.613Z,0.00
2018-03-18T02:30:22.937Z,0.00
2018-03-18T02:31:22.900Z,0.00
2018-03-18T02:33:16.272Z,0.00
2018-03-18T02:34:16.188Z,0.00
2018-03-18T02:36:09.514Z,0.00
2018-03-18T02:37:09.477Z,0.00
2018-03-18T02:39:02.847Z,0.00
2018-03-18T02:40:02.767Z,0.00
2018-03-18T02:41:56.133Z,0.00
2018-03-18T02:42:56.056Z,0.00
2018-03-18T02:44:49.376Z,0.00
2018-03-18T02:45:49.352Z,0.00
2018-03-18T02:47:42.707Z,0.00
2018-03-18T02:48:42.628Z,0.00
2018-03-18T02:50:35.949Z,0.00
2018-03-18T02:51:35.914Z,0.00
2018-03-18T02:53:29.284Z,0.00
2018-03-18T02:54:29.207Z,0.00
2018-03-18T02:56:22.525Z,0.00
2018-03-18T02:57:22.489Z,0.00
2018-03-18T02:59:15.857Z,0.00
2018-03-18T03:00:15.780Z,0.00
2018-03-18T03:02:09.142Z,0.00
2018-03-18T03:03:09.063Z,0.00
2018-03-18T03:05:02.424Z,0.00
2018-03-18T03:06:02.349Z,0.00
2018-03-18T03:07:55.720Z,0.00
2018-03-18T03:08:55.637Z,0.00
2018-03-18T03:10:48.960Z,0.00
2018-03-18T03:11:48.924Z,0.00
2018-03-18T03:13:42.295Z,0.00
2018-03-18T03:14:42.211Z,0.00
2018-03-18T03:16:35.537Z,0.00
2018-03-18T03:17:35.498Z,0.00
2018-03-18T03:19:30.018Z,0.00
2018-03-18T03:20:29.941Z,0.00
2018-03-18T03:22:23.310Z,0.00
2018-03-18T03:23:23.228Z,0.00
2018-03-18T03:25:16.555Z,0.00
2018-03-18T03:26:16.516Z,0.00
2018-03-18T03:28:09.892Z,0.00
2018-03-18T03:29:09.816Z,0.00
2018-03-18T03:31:03.138Z,0.00
2018-03-18T03:32:03.135Z,0.00
2018-03-18T03:33:56.467Z,0.00
2018-03-18T03:34:56.390Z,0.00
2018-03-18T03:36:49.732Z,0.00
2018-03-18T03:37:49.673Z,0.00
2018-03-18T03:39:43.042Z,0.00
2018-03-18T03:40:42.960Z,0.00
2018-03-18T03:42:36.286Z,0.00
2018-03-18T03:43:36.249Z,0.00
2018-03-18T03:45:29.619Z,0.00
2018-03-18T03:46:29.539Z,0.00
2018-03-18T03:48:22.925Z,0.00
2018-03-18T03:49:22.822Z,0.00
2018-03-18T03:51:16.148Z,0.00
2018-03-18T03:52:16.107Z,0.00
2018-03-18T03:54:09.478Z,0.00
2018-03-18T03:55:09.394Z,0.00
2018-03-18T03:57:02.723Z,0.00
2018-03-18T03:58:02.681Z,0.00
2018-03-18T03:59:56.052Z,0.00
2018-03-18T04:00:55.969Z,0.00
2018-03-18T04:02:49.294Z,0.00
2018-03-18T04:03:49.257Z,0.00
2018-03-18T04:05:42.624Z,0.00
2018-03-18T04:06:42.542Z,0.00
2018-03-18T04:08:35.866Z,0.00
2018-03-18T04:09:35.828Z,0.00
2018-03-18T04:11:29.205Z,0.00
2018-03-18T04:12:29.117Z,0.00
2018-03-18T04:14:22.492Z,0.00
2018-03-18T04:15:22.406Z,0.00
2018-03-18T04:17:15.730Z,0.00
2018-03-18T04:18:15.690Z,0.00
2018-03-18T04:20:09.060Z,0.00
2018-03-18T04:21:08.973Z,0.00
2018-03-18T04:23:03.297Z,0.00
2018-03-18T04:24:03.264Z,0.00
2018-03-18T04:25:56.627Z,0.00
2018-03-18T04:26:56.550Z,0.00
2018-03-18T04:27:56.520Z,0.00
2018-03-18T04:28:56.490Z,0.00
2018-03-18T04:29:56.456Z,0.00
2018-03-18T04:30:56.427Z,0.00
2018-03-18T04:31:56.397Z,0.00
2018-03-18T04:32:56.367Z,0.00
2018-03-18T04:33:56.385Z,0.00
2018-03-18T04:34:56.305Z,0.00
2018-03-18T04:35:56.274Z,0.00
2018-03-18T04:36:56.243Z,0.00
2018-03-18T04:37:56.214Z,0.00
2018-03-18T04:38:56.182Z,0.00
2018-03-18T04:39:56.151Z,0.00
2018-03-18T04:40:56.124Z,0.00
2018-03-18T04:41:56.095Z,0.00
2018-03-18T04:42:56.058Z,0.00
2018-03-18T04:43:56.026Z,0.00
2018-03-18T04:44:55.998Z,0.00
2018-03-18T04:45:55.965Z,0.00
2018-03-18T04:46:55.938Z,0.00
2018-03-18T04:47:55.905Z,0.00
2018-03-18T04:48:55.876Z,0.00
2018-03-18T04:49:55.843Z,0.00
2018-03-18T04:50:55.814Z,0.00
2018-03-18T04:51:55.782Z,0.00
2018-03-18T04:52:55.754Z,0.00
2018-03-18T04:53:55.723Z,0.00
2018-03-18T04:54:55.692Z,0.00
2018-03-18T04:55:55.660Z,0.00
2018-03-18T04:56:55.629Z,0.00
2018-03-18T04:57:55.597Z,0.00
2018-03-18T04:58:55.571Z,0.00
2018-03-18T04:59:55.537Z,0.00
2018-03-18T05:00:55.506Z,0.00
2018-03-18T05:01:55.479Z,0.00
2018-03-18T05:02:55.444Z,0.00
2018-03-18T05:03:55.414Z,0.00
2018-03-18T05:04:55.390Z,0.00
2018-03-18T05:05:55.351Z,0.00
2018-03-18T05:06:55.325Z,0.00
2018-03-18T05:07:55.291Z,0.00
2018-03-18T05:08:55.262Z,0.00
2018-03-18T05:09:55.233Z,0.00
2018-03-18T05:10:55.214Z,0.00
2018-03-18T05:11:55.170Z,0.00
2018-03-18T05:12:55.147Z,0.00
2018-03-18T05:13:55.104Z,0.00
2018-03-18T05:14:55.078Z,0.00
2018-03-18T05:15:55.051Z,0.00
2018-03-18T05:16:55.017Z,0.00
2018-03-18T05:17:54.987Z,0.00
2018-03-18T05:18:54.952Z,0.00
2018-03-18T05:19:54.925Z,0.00
2018-03-18T05:20:54.892Z,0.00
2018-03-18T05:21:54.861Z,0.00
2018-03-18T05:22:54.830Z,0.00
2018-03-18T05:23:54.800Z,0.00
2018-03-18T05:24:54.771Z,0.00
2018-03-18T05:25:54.757Z,0.00
2018-03-18T05:26:54.707Z,0.00
2018-03-18T05:27:54.678Z,0.00
2018-03-18T05:28:54.696Z,0.00
2018-03-18T05:29:54.617Z,0.00
2018-03-18T05:30:54.587Z,0.00
2018-03-18T05:31:54.555Z,0.00
2018-03-18T05:32:54.524Z,0.00
2018-03-18T05:33:54.491Z,0.00
2018-03-18T05:34:54.460Z,0.00
2018-03-18T05:35:54.439Z,0.00
2018-03-18T05:36:54.398Z,0.00
2018-03-18T05:37:54.368Z,0.00
2018-03-18T05:38:54.336Z,0.00
2018-03-18T05:39:54.308Z,0.00
2018-03-18T05:40:54.277Z,0.00
2018-03-18T05:41:54.242Z,0.00
2018-03-18T05:42:54.216Z,0.00
2018-03-18T05:43:54.182Z,0.00
2018-03-18T05:44:54.152Z,0.00
2018-03-18T05:45:54.119Z,0.00
2018-03-18T05:46:54.090Z,0.00
2018-03-18T05:47:54.059Z,0.00
2018-03-18T05:48:54.028Z,5.63
2018-03-18T05:49:53.997Z,5.63
2018-03-18T05:50:54.006Z,5.63
2018-03-18T05:51:53.933Z,5.63
2018-03-18T05:52:53.903Z,5.63
2018-03-18T05:53:53.875Z,5.63
2018-03-18T05:54:53.843Z,5.63
2018-03-18T05:55:53.812Z,5.63
2018-03-18T05:56:53.780Z,5.63
2018-03-18T05:57:53.749Z,5.63
2018-03-18T05:58:53.717Z,5.63
2018-03-18T05:59:53.688Z,5.63
2018-03-18T06:00:53.704Z,11.25
2018-03-18T06:01:53.626Z,11.25
2018-03-18T06:02:53.596Z,11.25
2018-03-18T06:03:53.594Z,11.25
2018-03-18T06:04:53.593Z,11.25
2018-03-18T06:05:53.519Z,11.25
2018-03-18T06:06:53.540Z,11.25
2018-03-18T06:07:53.442Z,11.25
2018-03-18T06:08:53.480Z,16.88
2018-03-18T06:09:53.379Z,16.88
2018-03-18T06:10:53.428Z,16.88
2018-03-18T06:11:53.403Z,16.88
2018-03-18T06:12:53.340Z,16.88
2018-03-18T06:13:53.304Z,16.88
2018-03-18T06:14:53.281Z,22.50
2018-03-18T06:15:54.234Z,22.50
2018-03-18T06:16:53.215Z,22.50
2018-03-18T06:17:53.138Z,22.50
2018-03-18T06:18:53.104Z,22.50
2018-03-18T06:19:53.078Z,28.13
2018-03-18T06:20:53.110Z,28.13
2018-03-18T06:21:53.011Z,28.13
2018-03-18T06:22:54.677Z,28.13
2018-03-18T06:23:52.952Z,28.13
2018-03-18T06:24:53.025Z,28.13
2018-03-18T06:25:52.887Z,33.75
2018-03-18T06:26:52.864Z,33.75
2018-03-18T06:27:52.827Z,33.75
2018-03-18T06:28:52.796Z,33.75
2018-03-18T06:29:52.765Z,33.75
2018-03-18T06:30:52.736Z,39.38
2018-03-18T06:31:52.710Z,39.38
2018-03-18T06:32:52.673Z,39.38
2018-03-18T06:33:52.694Z,45.00
2018-03-18T06:34:52.613Z,45.00
2018-03-18T06:35:52.629Z,45.00
2018-03-18T06:36:52.551Z,45.00
2018-03-18T06:37:52.520Z,50.63
2018-03-18T06:38:52.489Z,50.63
2018-03-18T06:39:52.459Z,50.63
2018-03-18T06:40:52.473Z,56.25
2018-03-18T06:41:52.399Z,56.25
2018-03-18T06:42:52.368Z,56.25
2018-03-18T06:43:52.337Z,56.25
2018-03-18T06:44:52.307Z,56.25
2018-03-18T06:45:53.185Z,56.25
2018-03-18T06:46:52.244Z,56.25
2018-03-18T06:47:52.213Z,56.25
2018-03-18T06:48:52.231Z,61.88
2018-03-18T06:49:52.164Z,61.88
2018-03-18T06:50:52.125Z,61.88
2018-03-18T06:51:52.090Z,61.88
2018-03-18T06:52:52.068Z,61.88
2018-03-18T06:53:52.031Z,61.88
2018-03-18T06:54:52.038Z,61.88
2018-03-18T06:55:51.969Z,61.88
2018-03-18T06:56:51.938Z,61.88
2018-03-18T06:57:51.912Z,61.88
2018-03-18T06:58:51.875Z,61.88
2018-03-18T06:59:51.848Z,61.88
2018-03-18T07:00:51.819Z,61.88
2018-03-18T07:01:51.786Z,61.88
2018-03-18T07:02:51.753Z,61.88
2018-03-18T07:03:51.722Z,67.50
2018-03-18T07:04:51.694Z,67.50
2018-03-18T07:05:51.663Z,67.50
2018-03-18T07:06:51.632Z,61.88
2018-03-18T07:07:51.601Z,61.88
2018-03-18T07:08:51.573Z,67.50
2018-03-18T07:09:51.539Z,67.50
2018-03-18T07:10:51.510Z,67.50
2018-03-18T07:11:51.480Z,67.50
2018-03-18T07:12:51.466Z,67.50
2018-03-18T07:13:51.422Z,67.50
2018-03-18T07:14:51.387Z,67.50
2018-03-18T07:15:51.359Z,67.50
2018-03-18T07:16:51.329Z,73.13
2018-03-18T07:17:51.304Z,73.13
2018-03-18T07:18:51.267Z,73.13
2018-03-18T07:19:51.240Z,73.13
2018-03-18T07:20:51.206Z,73.13
2018-03-18T07:21:51.175Z,73.13
2018-03-18T07:22:51.146Z,78.75
2018-03-18T07:23:51.115Z,78.75
2018-03-18T07:24:51.085Z,78.75
2018-03-18T07:25:51.054Z,78.75
2018-03-18T07:26:51.026Z,78.75
2018-03-18T07:27:50.997Z,78.75
2018-03-18T07:28:51.012Z,84.38
2018-03-18T07:29:50.967Z,84.38
2018-03-18T07:30:50.903Z,90.00
2018-03-18T07:31:50.882Z,90.00
2018-03-18T07:32:50.844Z,90.00
2018-03-18T07:33:50.816Z,90.00
2018-03-18T07:34:50.784Z,90.00
2018-03-18T07:35:50.752Z,90.00
2018-03-18T07:36:50.725Z,90.00
2018-03-18T07:37:50.692Z,90.00
2018-03-18T07:38:50.662Z,90.00
2018-03-18T07:39:50.633Z,90.00
2018-03-18T07:40:50.603Z,90.00
2018-03-18T07:41:50.574Z,95.63
2018-03-18T07:42:50.539Z,95.63
2018-03-18T07:43:50.522Z,95.63
2018-03-18T07:44:50.485Z,95.63
2018-03-18T07:45:50.454Z,95.63
2018-03-18T07:46:50.425Z,101.25
2018-03-18T07:47:50.391Z,101.25
2018-03-18T07:48:50.361Z,101.25
2018-03-18T07:49:50.332Z,101.25
2018-03-18T07:50:50.300Z,101.25
2018-03-18T07:51:50.298Z,101.25
2018-03-18T07:52:50.241Z,101.25
2018-03-18T07:53:50.216Z,101.25
2018-03-18T07:54:50.191Z,101.25
2018-03-18T07:55:50.150Z,106.88
2018-03-18T07:56:50.123Z,106.88
2018-03-18T07:57:50.089Z,106.88
2018-03-18T07:58:50.060Z,106.88
2018-03-18T07:59:50.031Z,106.88
2018-03-18T08:00:50.001Z,112.50
2018-03-18T08:01:49.970Z,112.50
2018-03-18T08:02:49.939Z,112.50
2018-03-18T08:03:49.910Z,118.13
2018-03-18T08:04:49.891Z,118.13
2018-03-18T08:05:49.853Z,118.13
2018-03-18T08:06:49.820Z,118.13
2018-03-18T08:07:49.791Z,123.75
2018-03-18T08:08:49.764Z,123.75
2018-03-18T08:09:49.730Z,123.75
2018-03-18T08:10:49.713Z,123.75
2018-03-18T08:11:49.670Z,123.75
2018-03-18T08:12:49.642Z,123.75
2018-03-18T08:13:49.609Z,123.75
2018-03-18T08:14:49.721Z,123.75
2018-03-18T08:15:49.553Z,123.75
2018-03-18T08:16:49.522Z,123.75
2018-03-18T08:17:49.514Z,129.38
2018-03-18T08:18:49.463Z,129.38
2018-03-18T08:19:49.432Z,129.38
2018-03-18T08:20:49.405Z,129.38
2018-03-18T08:21:49.372Z,129.38
2018-03-18T08:22:49.343Z,135.00
2018-03-18T08:23:49.313Z,135.00
2018-03-18T08:24:49.284Z,135.00
2018-03-18T08:25:49.323Z,135.00
2018-03-18T08:26:49.315Z,135.00
2018-03-18T08:27:49.198Z,140.63
2018-03-18T08:28:49.229Z,146.25
2018-03-18T08:29:49.136Z,146.25
2018-03-18T08:30:49.106Z,146.25
2018-03-18T08:31:49.089Z,146.25
2018-03-18T08:32:49.072Z,146.25
2018-03-18T08:33:49.016Z,151.88
2018-03-18T08:34:48.987Z,157.50
2018-03-18T08:35:48.958Z,157.50
2018-03-18T08:36:48.928Z,163.13
2018-03-18T08:37:48.899Z,163.13
2018-03-18T08:38:48.868Z,163.13
2018-03-18T08:39:48.866Z,163.13
2018-03-18T08:40:48.812Z,168.75
2018-03-18T08:41:48.778Z,168.75
2018-03-18T08:42:48.749Z,168.75
2018-03-18T08:43:48.724Z,180.00
2018-03-18T08:44:48.692Z,174.38
2018-03-18T08:45:48.669Z,174.38
2018-03-18T08:46:48.687Z,174.38
2018-03-18T08:47:48.601Z,174.38
2018-03-18T08:48:48.574Z,174.38
2018-03-18T08:49:48.542Z,174.38
2018-03-18T08:50:48.517Z,180.00
2018-03-18T08:51:48.484Z,174.38
2018-03-18T08:52:48.516Z,174.38
2018-03-18T08:53:48.489Z,180.00
2018-03-18T08:54:48.450Z,180.00
2018-03-18T08:55:48.383Z,180.00
2018-03-18T08:56:48.400Z,180.00
2018-03-18T08:57:48.308Z,180.00
2018-03-18T08:58:48.281Z,180.00
2018-03-18T08:59:48.314Z,185.63
2018-03-18T09:00:48.237Z,191.25
2018-03-18T09:01:48.191Z,191.25
2018-03-18T09:02:48.168Z,191.25
2018-03-18T09:03:48.135Z,180.00
2018-03-18T09:04:48.192Z,180.00
2018-03-18T09:05:48.129Z,180.00
2018-03-18T09:06:48.050Z,180.00
2018-03-18T09:07:48.017Z,180.00
2018-03-18T09:08:47.988Z,180.00
2018-03-18T09:09:47.961Z,180.00
2018-03-18T09:10:47.929Z,180.00
2018-03-18T09:11:47.910Z,180.00
2018-03-18T09:12:47.887Z,180.00
2018-03-18T09:13:47.842Z,180.00
2018-03-18T09:14:47.814Z,180.00
2018-03-18T09:15:47.796Z,185.63
2018-03-18T09:16:47.757Z,191.25
2018-03-18T09:17:47.745Z,185.63
2018-03-18T09:18:47.697Z,185.63
2018-03-18T09:19:47.717Z,191.25
2018-03-18T09:20:47.640Z,202.50
2018-03-18T09:21:47.616Z,202.50
2018-03-18T09:22:47.605Z,213.75
2018-03-18T09:23:47.558Z,213.75
2018-03-18T09:24:47.526Z,219.38
2018-03-18T09:25:47.498Z,225.00
2018-03-18T09:26:47.467Z,230.63
2018-03-18T09:27:47.449Z,241.88
2018-03-18T09:28:47.410Z,241.88
2018-03-18T09:29:47.401Z,247.50
2018-03-18T09:30:47.353Z,253.13
2018-03-18T09:31:47.321Z,247.50
2018-03-18T09:32:47.294Z,247.50
2018-03-18T09:33:47.268Z,247.50
2018-03-18T09:34:47.237Z,253.13
2018-03-18T09:35:47.214Z,253.13
2018-03-18T09:36:47.182Z,264.38
2018-03-18T09:37:47.152Z,264.38
2018-03-18T09:38:47.124Z,264.38
2018-03-18T09:39:47.095Z,270.00
2018-03-18T09:40:47.067Z,270.00
2018-03-18T09:41:47.074Z,270.00
2018-03-18T09:42:47.077Z,270.00
2018-03-18T09:43:47.546Z,270.00
2018-03-18T09:44:48.010Z,275.63
2018-03-18T09:45:48.026Z,281.25
2018-03-18T09:46:47.899Z,298.13
2018-03-18T09:47:49.319Z,303.75
2018-03-18T09:48:47.887Z,303.75
2018-03-18T09:49:47.771Z,303.75
2018-03-18T09:50:48.129Z,303.75
2018-03-18T09:51:47.805Z,298.13
2018-03-18T09:52:50.609Z,298.13
2018-03-18T09:53:47.616Z,286.88
2018-03-18T09:55:47.141Z,292.50
2018-03-18T09:58:00.492Z,303.75
2018-03-18T09:59:00.812Z,303.75
2018-03-18T10:00:53.035Z,298.13
2018-03-18T10:01:53.741Z,298.13
2018-03-18T10:03:48.415Z,281.25
2018-03-18T10:04:47.055Z,286.88
2018-03-18T10:06:40.805Z,298.13
2018-03-18T10:07:41.103Z,292.50
2018-03-18T10:09:33.945Z,292.50
2018-03-18T10:10:33.905Z,309.38
2018-03-18T10:12:27.304Z,326.25
2018-03-18T10:13:27.424Z,326.25
2018-03-18T10:14:27.473Z,326.25
2018-03-18T10:15:27.123Z,326.25
2018-03-18T10:16:27.098Z,331.88
2018-03-18T10:17:28.557Z,337.50
2018-03-18T10:18:27.048Z,337.50
2018-03-18T10:19:27.093Z,331.88
2018-03-18T10:20:26.988Z,337.50
2018-03-18T10:21:26.963Z,337.50
2018-03-18T10:22:26.934Z,337.50
2018-03-18T10:23:26.958Z,331.88
2018-03-18T10:24:27.193Z,326.25
2018-03-18T10:25:27.591Z,320.63
2018-03-18T10:26:26.824Z,326.25
2018-03-18T10:27:26.797Z,337.50
2018-03-18T10:28:26.771Z,343.13
2018-03-18T10:29:26.742Z,343.13
2018-03-18T10:30:26.771Z,343.13
2018-03-18T10:31:26.703Z,337.50
2018-03-18T10:32:26.704Z,348.75
2018-03-18T10:33:26.649Z,337.50
2018-03-18T10:34:26.615Z,326.25
2018-03-18T10:35:26.583Z,331.88
2018-03-18T10:36:26.555Z,320.63
2018-03-18T10:37:26.526Z,320.63
2018-03-18T10:38:26.760Z,320.63
2018-03-18T10:39:26.476Z,331.88
2018-03-18T10:40:26.771Z,331.88
2018-03-18T10:41:26.945Z,331.88
2018-03-18T10:42:26.692Z,337.50
2018-03-18T10:43:26.430Z,337.50
2018-03-18T10:45:22.202Z,343.13
2018-03-18T10:46:21.589Z,348.75
2018-03-18T10:48:17.994Z,337.50
2018-03-18T10:49:16.546Z,337.50
2018-03-18T10:50:16.568Z,331.88
2018-03-18T10:52:16.448Z,343.13
2018-03-18T10:53:16.858Z,337.50
2018-03-18T10:54:17.296Z,337.50
2018-03-18T10:55:16.728Z,337.50
2018-03-18T10:56:18.958Z,348.75
2018-03-18T10:57:18.890Z,354.38
2018-03-18T10:58:16.291Z,360.00
2018-03-18T10:59:16.636Z,365.63
2018-03-18T11:00:17.128Z,382.50
2018-03-18T11:01:16.669Z,393.75
2018-03-18T11:02:18.618Z,399.38
2018-03-18T11:03:17.339Z,410.63
2018-03-18T11:04:17.232Z,410.63
2018-03-18T11:05:16.102Z,410.63
2018-03-18T11:06:16.073Z,410.63
2018-03-18T11:07:16.055Z,405.00
2018-03-18T11:08:16.443Z,405.00
2018-03-18T11:09:16.408Z,399.38
2018-03-18T11:10:15.974Z,399.38
2018-03-18T11:11:16.704Z,388.13
2018-03-18T11:12:15.914Z,382.50
2018-03-18T11:13:16.067Z,371.25
2018-03-18T11:14:17.091Z,371.25
2018-03-18T11:15:16.617Z,376.88
2018-03-18T11:16:15.889Z,388.13
2018-03-18T11:17:15.803Z,399.38
2018-03-18T11:18:15.762Z,405.00
2018-03-18T11:19:16.422Z,393.75
2018-03-18T11:20:15.709Z,393.75
2018-03-18T11:21:15.692Z,399.38
2018-03-18T11:22:16.734Z,399.38
2018-03-18T11:23:16.519Z,410.63
2018-03-18T11:24:16.117Z,421.88
2018-03-18T11:26:15.549Z,444.38
2018-03-18T11:27:15.760Z,455.63
2018-03-18T11:28:16.014Z,472.50
2018-03-18T11:29:15.662Z,489.38
2018-03-18T11:30:15.452Z,495.00
2018-03-18T11:31:15.536Z,500.63
2018-03-18T11:32:15.416Z,523.13
2018-03-18T11:33:17.035Z,568.13
2018-03-18T11:34:16.103Z,607.50
2018-03-18T11:35:15.600Z,613.13
2018-03-18T11:36:15.417Z,579.38
2018-03-18T11:37:16.001Z,506.25
2018-03-18T11:38:15.236Z,506.25
2018-03-18T11:39:15.215Z,511.88
2018-03-18T11:40:15.470Z,534.38
2018-03-18T11:41:15.550Z,528.75
2018-03-18T11:42:15.134Z,556.88
2018-03-18T11:43:15.111Z,556.88
2018-03-18T11:44:15.476Z,562.50
2018-03-18T11:45:15.059Z,562.50
2018-03-18T11:46:15.033Z,556.88
2018-03-18T11:47:15.051Z,573.75
2018-03-18T11:48:15.426Z,601.88
2018-03-18T11:49:15.136Z,630.00
2018-03-18T11:50:15.207Z,613.13
2018-03-18T11:51:15.721Z,613.13
2018-03-18T11:52:15.755Z,624.38
2018-03-18T11:53:15.698Z,624.38
2018-03-18T11:54:14.950Z,624.38
2018-03-18T11:55:14.809Z,635.63
2018-03-18T11:56:15.202Z,635.63
2018-03-18T11:57:14.980Z,675.00
2018-03-18T11:58:14.835Z,613.13
2018-03-18T11:59:15.093Z,590.63
2018-03-18T12:00:14.866Z,596.25
2018-03-18T12:01:14.724Z,624.38
2018-03-18T12:02:14.831Z,680.63
2018-03-18T12:03:14.801Z,669.38
2018-03-18T12:04:14.586Z,720.00
2018-03-18T12:05:15.243Z,793.13
2018-03-18T12:06:15.616Z,916.88
2018-03-18T12:07:15.197Z,939.38
2018-03-18T12:08:14.495Z,950.63
2018-03-18T12:09:14.466Z,1243.13
2018-03-18T12:10:14.436Z,1614.38
2018-03-18T12:11:14.607Z,2160.00
2018-03-18T12:12:14.387Z,2424.38
2018-03-18T12:13:15.039Z,1935.00
2018-03-18T12:14:14.340Z,2058.75
2018-03-18T12:15:14.401Z,2025.00
2018-03-18T12:16:14.343Z,1805.63
2018-03-18T12:17:14.343Z,1794.38
2018-03-18T12:18:14.333Z,1816.88
2018-03-18T12:19:14.232Z,1389.38
2018-03-18T12:20:14.219Z,1355.63
2018-03-18T12:21:14.212Z,1473.75
2018-03-18T12:22:14.218Z,1428.75
2018-03-18T12:23:14.151Z,2120.63
2018-03-18T12:24:14.164Z,1974.38
2018-03-18T12:25:14.131Z,1800.00
2018-03-18T12:26:14.118Z,1501.88
2018-03-18T12:27:14.125Z,1282.50
2018-03-18T12:28:14.056Z,1237.50
2018-03-18T12:29:14.039Z,1788.75
2018-03-18T12:30:14.042Z,1710.00
2018-03-18T12:31:14.037Z,1861.88
2018-03-18T12:32:13.978Z,1721.25
2018-03-18T12:33:13.944Z,1468.13
2018-03-18T12:34:13.922Z,1681.88
2018-03-18T12:35:14.172Z,1496.25
2018-03-18T12:36:14.485Z,1721.25
2018-03-18T12:37:15.242Z,1710.00
2018-03-18T12:38:14.331Z,1456.88
2018-03-18T12:39:14.090Z,1496.25
2018-03-18T12:40:13.809Z,1355.63
2018-03-18T12:41:13.792Z,1524.38
2018-03-18T12:42:13.875Z,832.50
2018-03-18T12:43:13.880Z,978.75
2018-03-18T12:44:14.508Z,1091.25
2018-03-18T12:45:13.719Z,1057.50
2018-03-18T12:46:13.702Z,1023.75
2018-03-18T12:47:13.736Z,990.00
2018-03-18T12:48:13.672Z,804.38
2018-03-18T12:49:13.707Z,1220.63
2018-03-18T12:50:13.636Z,1046.25
2018-03-18T12:51:13.612Z,821.25
2018-03-18T12:52:13.626Z,916.88
2018-03-18T12:53:13.574Z,866.25
2018-03-18T12:54:13.556Z,1012.50
2018-03-18T12:55:13.536Z,883.13
2018-03-18T12:56:13.531Z,933.75
2018-03-18T12:57:13.500Z,1006.88
2018-03-18T12:58:13.487Z,1254.38
2018-03-18T12:59:13.487Z,1237.50
2018-03-18T13:00:13.444Z,1113.75
2018-03-18T13:01:13.490Z,1338.75
2018-03-18T13:02:13.480Z,1237.50
2018-03-18T13:03:13.788Z,1406.25
2018-03-18T13:04:14.309Z,1389.38
2018-03-18T13:05:13.370Z,1338.75
2018-03-18T13:06:13.358Z,1254.38
2018-03-18T13:07:13.314Z,1355.63
2018-03-18T13:08:13.451Z,1226.25
2018-03-18T13:09:13.278Z,1411.88
2018-03-18T13:10:13.547Z,1400.63
2018-03-18T13:11:13.251Z,1423.13
2018-03-18T13:12:13.404Z,1366.88
2018-03-18T13:13:13.207Z,1355.63
2018-03-18T13:14:13.186Z,1389.38
2018-03-18T13:15:13.190Z,1490.63
2018-03-18T13:16:13.158Z,1361.25
2018-03-18T13:17:13.139Z,1395.00
2018-03-18T13:18:13.129Z,1423.13
2018-03-18T13:19:13.097Z,1653.75
2018-03-18T13:20:13.089Z,1659.38
2018-03-18T13:21:13.075Z,1670.63
2018-03-18T13:22:13.069Z,1490.63
2018-03-18T13:23:13.046Z,1400.63
2018-03-18T13:24:13.017Z,1378.13
2018-03-18T13:25:13.024Z,1333.13
2018-03-18T13:26:12.976Z,1428.75
2018-03-18T13:27:13.072Z,1563.75
2018-03-18T13:28:12.953Z,1732.50
2018-03-18T13:29:12.983Z,1563.75
2018-03-18T13:30:12.912Z,1580.63
2018-03-18T13:31:12.901Z,1710.00
2018-03-18T13:32:12.882Z,1681.88
2018-03-18T13:33:12.861Z,1721.25
2018-03-18T13:34:12.848Z,1681.88
2018-03-18T13:35:12.832Z,1636.88
2018-03-18T13:36:12.866Z,1620.00
2018-03-18T13:37:12.800Z,1732.50
2018-03-18T13:38:12.790Z,1687.50
2018-03-18T13:39:12.780Z,1715.63
2018-03-18T13:40:12.763Z,1732.50
2018-03-18T13:41:12.793Z,1743.75
2018-03-18T13:42:12.787Z,1738.13
2018-03-18T13:43:13.603Z,1743.75
2018-03-18T13:44:12.693Z,1816.88
2018-03-18T13:45:13.014Z,1850.63
2018-03-18T13:46:12.839Z,1850.63
2018-03-18T13:47:12.896Z,1890.00
2018-03-18T13:48:12.653Z,1867.50
2018-03-18T13:49:12.850Z,1850.63
2018-03-18T13:50:12.760Z,1833.75
2018-03-18T13:51:12.678Z,1816.88
2018-03-18T13:52:12.717Z,1771.88
2018-03-18T13:53:12.699Z,1777.50
2018-03-18T13:54:12.580Z,1771.88
2018-03-18T13:55:12.556Z,1805.63
2018-03-18T13:56:12.529Z,1828.13
2018-03-18T13:57:12.532Z,1822.50
2018-03-18T13:58:12.550Z,1794.38
2018-03-18T13:59:12.566Z,1726.88
2018-03-18T14:00:12.488Z,1715.63
2018-03-18T14:01:12.582Z,1687.50
2018-03-18T14:02:12.997Z,1676.25
2018-03-18T14:03:13.023Z,1636.88
2018-03-18T14:04:12.535Z,1648.13
2018-03-18T14:05:12.420Z,1653.75
2018-03-18T14:06:12.405Z,1665.00
2018-03-18T14:07:12.424Z,1738.13
2018-03-18T14:08:12.380Z,1710.00
2018-03-18T14:09:12.438Z,1704.38
2018-03-18T14:10:12.470Z,1676.25
2018-03-18T14:11:12.344Z,1693.13
2018-03-18T14:12:12.578Z,1760.63
2018-03-18T14:13:12.392Z,1721.25
2018-03-18T14:14:12.313Z,1794.38
2018-03-18T14:15:12.372Z,1816.88
2018-03-18T14:16:12.313Z,1833.75
2018-03-18T14:17:12.313Z,1822.50